Time;durP1;ratioP1;P1;durP2;ratioP2;P2;SDS_P1;SDS_P2;PMS_P1;PMS_P2;Temp;Humidity;BMP_temperature;BMP_pressure;BME280_temperature;BME280_humidity;BME280_pressure;Samples;Min_cycle;Max_cycle;Signal;HPM_P1;HPM_P2
2022/04/18 00:01:59;;;;;;;1.93;1.60;;;12.30;86.80;;;;;;5055180;28;20257;-83
2022/04/18 00:04:26;;;;;;;1.53;1.43;;;12.30;86.20;;;;;;5055139;28;20666;-83
2022/04/18 00:06:52;;;;;;;2.08;1.88;;;12.30;87.00;;;;;;5054137;28;20428;-83
2022/04/18 00:09:19;;;;;;;2.37;2.00;;;12.50;86.40;;;;;;5054879;28;20211;-81
2022/04/18 00:11:46;;;;;;;1.60;1.57;;;12.50;85.60;;;;;;5055000;28;20210;-80
2022/04/18 00:14:13;;;;;;;2.70;1.80;;;12.40;85.20;;;;;;5055397;28;20195;-82
2022/04/18 00:16:41;;;;;;;3.07;1.70;;;12.30;86.00;;;;;;5054095;28;20749;-83
2022/04/18 00:19:08;;;;;;;1.57;1.47;;;12.40;86.00;;;;;;5054512;28;20206;-82
2022/04/18 00:21:35;;;;;;;2.77;1.50;;;12.30;85.90;;;;;;5055226;28;20624;-83
2022/04/18 00:24:03;;;;;;;2.97;1.40;;;12.20;85.90;;;;;;5054941;28;20207;-79
2022/04/18 00:26:31;;;;;;;4.30;1.57;;;12.20;86.70;;;;;;5055075;28;20564;-78
2022/04/18 00:28:58;;;;;;;3.03;1.30;;;12.10;87.00;;;;;;5054771;28;20289;-78
2022/04/18 00:31:25;;;;;;;3.17;1.60;;;12.00;86.60;;;;;;5054895;28;20211;-80
2022/04/18 00:33:53;;;;;;;2.60;1.30;;;12.00;86.50;;;;;;5054187;28;20206;-81
2022/04/18 00:36:21;;;;;;;1.70;1.60;;;11.90;87.70;;;;;;5054727;28;20207;-83
2022/04/18 00:38:48;;;;;;;1.60;1.33;;;11.80;88.90;;;;;;5054524;28;20582;-80
2022/04/18 00:41:15;;;;;;;2.30;1.00;;;11.80;90.00;;;;;;5054497;28;20202;-81
2022/04/18 00:43:44;;;;;;;2.27;1.30;;;11.70;89.10;;;;;;5053953;28;20246;-82
2022/04/18 00:46:13;;;;;;;1.60;1.50;;;11.70;88.70;;;;;;5054519;28;20237;-80
2022/04/18 00:48:40;;;;;;;1.70;1.60;;;11.60;89.20;;;;;;5054339;28;20301;-83
2022/04/18 00:51:12;;;;;;;1.67;1.57;;;11.60;89.60;;;;;;5054407;28;20206;-80
2022/04/18 00:53:40;;;;;;;1.80;1.70;;;11.60;90.30;;;;;;5054554;28;20202;-83
2022/04/18 00:56:08;;;;;;;2.37;1.90;;;11.50;90.70;;;;;;5054263;28;20233;-79
2022/04/18 00:58:35;;;;;;;2.27;2.13;;;11.40;91.00;;;;;;5054553;28;20198;-81
2022/04/18 01:01:02;;;;;;;1.90;1.80;;;11.30;91.30;;;;;;5053902;28;20735;-78
2022/04/18 01:03:30;;;;;;;5.83;1.77;;;11.30;91.00;;;;;;5053828;28;20230;-81
2022/04/18 01:05:57;;;;;;;1.67;1.57;;;11.30;90.50;;;;;;5054367;28;20293;-81
2022/04/18 01:08:26;;;;;;;2.07;1.63;;;11.30;90.60;;;;;;5054435;28;20209;-80
2022/04/18 01:10:54;;;;;;;1.60;1.50;;;11.20;90.70;;;;;;5053962;28;20212;-81
2022/04/18 01:13:21;;;;;;;2.40;1.40;;;11.10;90.80;;;;;;5054352;28;20206;-80
2022/04/18 01:15:52;;;;;;;1.60;1.50;;;11.10;91.40;;;;;;5053982;28;20203;-84
2022/04/18 01:18:19;;;;;;;3.03;1.27;;;11.10;91.60;;;;;;5053665;28;20238;-83
2022/04/18 01:20:47;;;;;;;1.57;1.47;;;11.00;91.80;;;;;;5053917;28;20209;-80
2022/04/18 01:23:15;;;;;;;3.77;1.40;;;10.80;92.50;;;;;;5052880;28;20233;-81
2022/04/18 01:31:13;;;;;;;3.70;1.73;;;10.60;93.20;;;;;;5053650;28;20209;-82
2022/04/18 01:33:39;;;;;;;5.90;1.47;;;10.60;93.50;;;;;;5053545;28;20215;-82
2022/04/18 01:36:09;;;;;;;7.63;1.43;;;10.50;93.80;;;;;;5053744;28;20208;-81
2022/04/18 01:38:35;;;;;;;4.70;1.53;;;10.40;93.90;;;;;;5053418;28;20213;-81
2022/04/18 01:41:02;;;;;;;3.33;1.73;;;10.40;94.00;;;;;;5053036;28;20202;-80
2022/04/18 01:43:31;;;;;;;2.53;1.70;;;10.40;94.70;;;;;;5053326;28;20465;-82
2022/04/18 01:45:58;;;;;;;2.63;2.03;;;10.40;95.10;;;;;;5052842;28;20812;-81
2022/04/18 01:48:25;;;;;;;2.73;1.57;;;10.30;95.70;;;;;;5053291;28;20209;-79
2022/04/18 01:50:52;;;;;;;1.53;1.43;;;10.20;96.20;;;;;;5052859;28;20199;-80
2022/04/18 01:53:20;;;;;;;1.47;1.37;;;10.30;96.50;;;;;;5053483;28;20214;-78
2022/04/18 01:55:48;;;;;;;5.30;2.00;;;10.30;97.00;;;;;;5053007;28;20202;-80
2022/04/18 01:58:15;;;;;;;2.53;1.60;;;10.10;96.30;;;;;;5053149;28;20680;-80
2022/04/18 02:00:41;;;;;;;3.83;1.57;;;10.10;96.20;;;;;;5052536;28;20233;-82
2022/04/18 02:03:08;;;;;;;2.03;1.93;;;10.10;96.10;;;;;;5052797;28;20257;-79
2022/04/18 02:05:35;;;;;;;2.17;1.93;;;10.00;96.70;;;;;;5053018;28;20245;-81
2022/04/18 02:08:02;;;;;;;3.47;2.57;;;9.90;96.80;;;;;;5053305;28;20203;-81
2022/04/18 02:10:30;;;;;;;1.97;1.80;;;9.90;96.90;;;;;;5052662;28;20206;-80
2022/04/18 02:12:59;;;;;;;3.47;1.57;;;9.90;97.20;;;;;;5052647;28;20206;-81
2022/04/18 02:15:25;;;;;;;2.80;1.73;;;9.90;97.50;;;;;;5052174;28;20677;-82
2022/04/18 02:17:52;;;;;;;1.83;1.70;;;9.90;97.50;;;;;;5053225;28;20206;-85
2022/04/18 02:20:20;;;;;;;4.27;1.83;;;9.90;97.60;;;;;;5052122;28;20209;-84
2022/04/18 02:22:47;;;;;;;2.30;1.93;;;10.00;97.00;;;;;;5052905;28;20218;-84
2022/04/18 02:25:15;;;;;;;2.33;1.83;;;9.90;97.40;;;;;;5052571;28;20209;-84
2022/04/18 02:27:43;;;;;;;2.37;2.20;;;10.00;96.80;;;;;;5052849;28;20198;-84
2022/04/18 02:30:10;;;;;;;2.00;1.90;;;10.00;96.90;;;;;;5052658;28;20206;-83
2022/04/18 02:32:49;;;;;;;5.25;1.90;;;10.00;97.00;;;;;;5052612;28;20402;-84
2022/04/18 02:35:17;;;;;;;3.60;1.70;;;10.00;97.20;;;;;;5053033;28;20683;-84
2022/04/18 02:37:44;;;;;;;2.03;1.80;;;9.90;98.60;;;;;;5058416;28;20208;-83
2022/04/18 02:40:12;;;;;;;8.83;1.93;;;9.90;99.20;;;;;;5058110;28;20218;-84
2022/04/18 02:42:44;;;;;;;3.30;1.70;;;9.80;99.40;;;;;;5059339;28;20237;-83
2022/04/18 02:45:12;;;;;;;2.20;1.73;;;9.70;98.80;;;;;;5054414;28;20576;-80
2022/04/18 02:47:39;;;;;;;1.97;1.80;;;9.60;98.80;;;;;;5055576;28;20244;-80
2022/04/18 02:50:08;;;;;;;2.77;1.70;;;9.50;99.00;;;;;;5062474;28;20529;-80
2022/04/18 02:52:35;;;;;;;2.10;2.00;;;9.40;99.30;;;;;;5059536;28;20219;-80
2022/04/18 02:55:01;;;;;;;3.30;2.30;;;9.30;99.80;;;;;;5052893;28;20638;-83
2022/04/18 02:57:28;;;;;;;4.13;2.37;;;9.20;99.90;;;;;;5052630;28;20683;-82
2022/04/18 02:59:56;;;;;;;3.00;2.70;;;9.20;99.90;;;;;;5045621;28;20213;-81
2022/04/18 03:02:23;;;;;;;3.13;2.43;;;9.30;99.90;;;;;;5052128;28;20225;-80
2022/04/18 03:04:51;;;;;;;5.97;2.20;;;9.30;99.90;;;;;;5051113;28;20230;-79
2022/04/18 03:07:19;;;;;;;2.87;2.10;;;9.40;99.90;;;;;;5051846;28;20222;-80
2022/04/18 03:09:46;;;;;;;4.03;2.10;;;9.40;99.90;;;;;;5052284;28;20233;-80
2022/04/18 03:12:13;;;;;;;2.70;1.90;;;9.40;99.90;;;;;;5052552;28;20599;-79
2022/04/18 03:14:40;;;;;;;6.63;1.93;;;9.30;99.90;;;;;;5052168;28;20211;-80
2022/04/18 03:17:09;;;;;;;5.03;2.10;;;9.10;99.90;;;;;;5052416;28;20214;-80
2022/04/18 03:19:36;;;;;;;7.87;2.50;;;9.10;99.90;;;;;;5051749;28;20199;-80
2022/04/18 03:22:03;;;;;;;2.83;1.75;;;9.20;99.90;;;;;;5052185;28;20378;-80
2022/04/18 03:24:31;;;;;;;2.20;1.97;;;9.20;99.90;;;;;;5052085;28;20261;-80
2022/04/18 03:27:00;;;;;;;3.37;2.20;;;9.20;99.90;;;;;;5052218;28;20285;-82
2022/04/18 03:29:27;;;;;;;2.70;2.50;;;9.30;99.90;;;;;;5051917;28;20202;-81
2022/04/18 03:31:54;;;;;;;3.13;2.10;;;9.30;99.90;;;;;;5052308;28;20286;-82
2022/04/18 03:34:25;;;;;;;2.30;2.10;;;9.40;99.90;;;;;;5052018;28;20639;-80
2022/04/18 03:39:52;;;;;;;2.13;1.90;;;9.30;99.90;;;;;;5052189;28;20244;-82
2022/04/18 03:42:28;;;;;;;2.93;2.30;;;9.30;99.90;;;;;;5051647;28;20298;-83
2022/04/18 03:44:57;;;;;;;2.57;2.37;;;9.30;99.90;;;;;;5051999;28;20206;-82
2022/04/18 03:47:24;;;;;;;3.90;2.40;;;9.20;99.90;;;;;;5054407;28;20298;-80
2022/04/18 03:49:54;;;;;;;2.97;2.10;;;9.20;99.90;;;;;;5055723;28;20199;-82
2022/04/18 03:52:22;;;;;;;5.37;2.30;;;9.00;99.90;;;;;;5055214;28;20206;-82
2022/04/18 03:54:50;;;;;;;2.67;2.40;;;8.90;99.90;;;;;;5055629;28;20206;-82
2022/04/18 03:57:17;;;;;;;5.67;2.40;;;8.80;99.90;;;;;;5055013;28;20214;-80
2022/04/18 03:59:44;;;;;;;4.67;2.50;;;8.70;99.90;;;;;;5055648;28;20210;-81
2022/04/18 04:02:11;;;;;;;3.20;2.80;;;8.60;99.90;;;;;;5055196;28;20326;-81
2022/04/18 04:04:38;;;;;;;5.33;2.70;;;8.60;99.90;;;;;;5055372;28;20329;-83
2022/04/18 04:07:06;;;;;;;3.30;2.90;;;8.40;99.90;;;;;;5055283;28;20209;-79
2022/04/18 04:09:34;;;;;;;6.07;3.17;;;8.30;99.90;;;;;;5054628;28;20202;-79
2022/04/18 04:12:02;;;;;;;3.63;2.70;;;8.30;99.90;;;;;;5054982;28;20374;-79
2022/04/18 04:14:29;;;;;;;6.47;2.70;;;8.20;99.90;;;;;;5055493;28;20239;-79
2022/04/18 04:16:56;;;;;;;3.37;2.20;;;8.30;99.90;;;;;;5055168;28;20285;-81
2022/04/18 04:19:23;;;;;;;4.43;2.80;;;8.30;99.90;;;;;;5054228;28;20211;-80
2022/04/18 04:21:50;;;;;;;3.17;2.30;;;8.30;99.90;;;;;;5055016;28;20206;-79
2022/04/18 04:24:19;;;;;;;6.40;2.40;;;8.20;99.90;;;;;;5053752;28;20222;-80
2022/04/18 04:26:46;;;;;;;2.77;2.00;;;8.20;99.90;;;;;;5054861;28;20206;-80
2022/04/18 04:29:13;;;;;;;2.20;2.00;;;8.20;99.90;;;;;;5055060;28;20229;-78
2022/04/18 04:31:40;;;;;;;2.37;2.17;;;8.40;99.90;;;;;;5054877;28;20212;-80
2022/04/18 04:34:10;;;;;;;2.40;2.10;;;8.40;99.90;;;;;;5054904;28;20209;-83
2022/04/18 04:36:37;;;;;;;2.97;2.00;;;8.50;99.90;;;;;;5054827;28;20465;-81
2022/04/18 04:39:03;;;;;;;2.03;1.87;;;8.50;99.90;;;;;;5054396;28;20207;-82
2022/04/18 04:41:32;;;;;;;2.60;2.00;;;8.60;99.90;;;;;;5054699;28;20213;-82
2022/04/18 04:43:59;;;;;;;4.93;2.00;;;8.60;99.90;;;;;;5054736;28;20230;-81
2022/04/18 04:46:26;;;;;;;1.97;1.77;;;8.60;99.90;;;;;;5054746;28;20206;-79
2022/04/18 04:48:53;;;;;;;5.10;2.40;;;8.70;99.90;;;;;;5054648;28;20233;-78
2022/04/18 04:51:20;;;;;;;3.20;2.07;;;8.70;99.90;;;;;;5054805;28;20202;-80
2022/04/18 04:53:47;;;;;;;9.07;3.17;;;8.80;99.90;;;;;;5054362;28;20206;-78
2022/04/18 04:56:14;;;;;;;2.37;2.17;;;8.80;99.90;;;;;;5054489;28;20558;-80
2022/04/18 04:58:42;;;;;;;2.90;2.30;;;8.80;99.90;;;;;;5054533;28;20210;-79
2022/04/18 05:01:08;;;;;;;2.53;2.17;;;8.80;99.90;;;;;;5048473;28;20223;-80
2022/04/18 05:03:35;;;;;;;2.50;2.30;;;8.90;99.90;;;;;;5032385;28;20243;-80
2022/04/18 05:06:02;;;;;;;3.97;2.17;;;9.00;99.90;;;;;;5033035;28;20203;-82
2022/04/18 05:08:29;;;;;;;3.97;1.80;;;9.00;99.90;;;;;;5034434;28;20199;-81
2022/04/18 05:10:59;;;;;;;2.57;2.00;;;9.00;99.90;;;;;;5034205;28;20201;-84
2022/04/18 05:13:26;;;;;;;3.03;2.63;;;9.00;99.90;;;;;;5034167;28;20214;-80
2022/04/18 05:15:54;;;;;;;3.03;2.40;;;9.00;99.90;;;;;;5034123;28;20562;-81
2022/04/18 05:18:21;;;;;;;3.63;2.67;;;9.00;99.90;;;;;;5034150;28;20207;-80
2022/04/18 05:20:48;;;;;;;4.43;2.80;;;9.00;99.90;;;;;;5032819;28;20572;-82
2022/04/18 05:23:16;;;;;;;4.57;2.67;;;9.10;99.90;;;;;;5033321;28;20215;-80
2022/04/18 05:25:43;;;;;;;2.63;2.43;;;9.10;99.90;;;;;;5034136;28;20203;-80
2022/04/18 05:28:10;;;;;;;5.25;3.08;;;9.20;99.90;;;;;;5033230;28;20438;-79
2022/04/18 05:30:37;;;;;;;3.03;2.57;;;9.50;99.90;;;;;;5033513;28;20203;-79
2022/04/18 05:33:07;;;;;;;6.57;2.60;;;9.50;99.90;;;;;;5033862;28;20207;-79
2022/04/18 05:35:34;;;;;;;3.03;2.80;;;9.40;99.90;;;;;;5033623;28;20578;-80
2022/04/18 05:38:01;;;;;;;6.50;2.83;;;9.60;99.90;;;;;;5033291;28;20219;-80
2022/04/18 05:40:28;;;;;;;2.90;2.60;;;9.60;99.90;;;;;;5033528;28;20577;-80
2022/04/18 05:42:55;;;;;;;3.27;2.53;;;9.60;99.90;;;;;;5033466;28;20740;-81
2022/04/18 05:45:22;;;;;;;3.63;2.17;;;9.50;99.90;;;;;;5033577;28;20235;-80
2022/04/18 05:47:50;;;;;;;2.70;2.20;;;9.50;99.90;;;;;;5033268;28;20216;-80
2022/04/18 05:50:19;;;;;;;5.43;4.30;;;9.60;99.90;;;;;;5033716;28;20299;-80
2022/04/18 05:52:47;;;;;;;5.50;4.63;;;9.60;99.90;;;;;;5032148;28;20497;-79
2022/04/18 05:55:13;;;;;;;4.17;3.37;;;9.80;99.90;;;;;;5033440;28;21097;-79
2022/04/18 05:57:40;;;;;;;2.73;2.50;;;9.80;99.90;;;;;;5032975;28;20565;-80
2022/04/18 06:00:08;;;;;;;2.13;1.97;;;9.90;99.90;;;;;;5032887;28;20573;-80
2022/04/18 06:02:34;;;;;;;2.90;2.27;;;9.70;99.90;;;;;;5032317;28;20666;-80
2022/04/18 06:05:01;;;;;;;2.57;2.30;;;9.70;99.90;;;;;;5032059;28;20243;-79
2022/04/18 06:07:30;;;;;;;3.17;2.13;;;9.60;99.90;;;;;;5047401;28;20538;-80
2022/04/18 06:09:56;;;;;;;2.70;2.50;;;9.70;99.90;;;;;;5051608;28;20195;-82
2022/04/18 06:12:23;;;;;;;2.30;2.10;;;9.70;99.90;;;;;;5052723;28;20240;-79
2022/04/18 06:14:50;;;;;;;2.50;2.30;;;9.80;99.90;;;;;;5052001;28;20202;-79
2022/04/18 06:17:17;;;;;;;3.07;2.60;;;9.70;99.90;;;;;;5052419;28;20203;-80
2022/04/18 06:19:43;;;;;;;4.07;2.90;;;9.70;99.90;;;;;;5051871;28;20203;-80
2022/04/18 06:22:11;;;;;;;6.20;2.80;;;9.70;99.90;;;;;;5051608;28;20206;-80
2022/04/18 06:24:39;;;;;;;4.07;3.07;;;9.80;99.90;;;;;;5052123;28;20226;-79
2022/04/18 06:27:06;;;;;;;2.83;2.53;;;9.80;99.90;;;;;;5052410;28;20206;-78
2022/04/18 06:29:33;;;;;;;5.00;2.33;;;9.90;99.90;;;;;;5052788;28;20677;-79
2022/04/18 06:32:00;;;;;;;4.33;2.73;;;9.90;99.90;;;;;;5052414;28;20621;-79
2022/04/18 06:34:28;;;;;;;4.20;2.00;;;10.00;99.90;;;;;;5052733;28;20556;-80
2022/04/18 06:36:55;;;;;;;2.83;2.50;;;10.00;99.90;;;;;;5051678;28;20195;-77
2022/04/18 06:39:21;;;;;;;3.07;2.33;;;9.90;99.90;;;;;;5052633;28;20217;-80
2022/04/18 06:41:49;;;;;;;3.78;2.75;;;9.90;99.90;;;;;;5051840;28;20438;-79
2022/04/18 06:44:16;;;;;;;3.33;3.03;;;9.90;99.90;;;;;;5052670;28;20233;-79
2022/04/18 06:46:43;;;;;;;6.50;3.90;;;10.00;99.90;;;;;;5052084;28;20206;-77
2022/04/18 06:49:10;;;;;;;4.90;2.67;;;10.10;99.90;;;;;;5052764;28;20256;-80
2022/04/18 06:51:36;;;;;;;4.37;2.80;;;10.10;99.90;;;;;;5052015;28;20226;-79
2022/04/18 06:54:03;;;;;;;4.70;2.83;;;10.30;99.90;;;;;;5052628;28;20222;-79
2022/04/18 06:59:16;;;;;;;2.63;2.43;;;10.10;99.90;;;;;;5052746;28;20284;-77
2022/04/18 07:01:42;;;;;;;3.27;2.87;;;10.20;99.90;;;;;;5052595;28;20233;-79
2022/04/18 07:04:09;;;;;;;6.80;3.07;;;10.30;99.90;;;;;;5052322;28;20226;-84
2022/04/18 07:06:36;;;;;;;4.32;3.83;;;10.40;99.90;;;;;;5051508;28;20453;-84
2022/04/18 07:09:03;;;;;;;3.70;3.40;;;10.40;99.90;;;;;;5052304;28;20209;-84
2022/04/18 07:11:29;;;;;;;4.57;3.20;;;10.40;99.90;;;;;;5052400;28;20569;-84
2022/04/18 07:13:56;;;;;;;4.93;3.10;;;10.50;99.90;;;;;;5052223;28;20213;-84
2022/04/18 07:16:24;;;;;;;3.93;3.17;;;10.60;99.90;;;;;;5052238;28;20213;-84
2022/04/18 07:18:51;;;;;;;6.20;3.57;;;10.80;99.90;;;;;;5051377;28;20199;-84
2022/04/18 07:21:19;;;;;;;5.33;3.30;;;11.00;99.90;;;;;;5052151;28;20571;-83
2022/04/18 07:23:46;;;;;;;4.97;3.10;;;10.90;99.90;;;;;;5055389;28;20666;-84
2022/04/18 07:26:12;;;;;;;9.07;3.43;;;11.00;99.90;;;;;;5056000;28;20281;-84
2022/04/18 07:28:39;;;;;;;6.20;3.40;;;11.20;99.90;;;;;;5055555;28;20199;-84
2022/04/18 07:31:07;;;;;;;8.20;3.60;;;11.40;99.60;;;;;;5055664;28;20237;-84
2022/04/18 07:33:36;;;;;;;4.20;3.10;;;11.40;99.10;;;;;;5055867;28;20268;-83
2022/04/18 07:36:03;;;;;;;4.47;2.50;;;11.50;98.60;;;;;;5056092;28;20206;-84
2022/04/18 07:41:14;;;;;;;6.90;2.93;;;11.90;98.20;;;;;;5055994;28;20664;-84
2022/04/18 07:43:41;;;;;;;5.67;2.93;;;11.90;97.20;;;;;;5055729;28;20202;-84
2022/04/18 07:46:08;;;;;;;3.90;2.87;;;12.00;97.30;;;;;;5055556;28;20229;-85
2022/04/18 07:48:40;;;;;;;6.60;2.90;;;12.10;97.10;;;;;;5055154;28;20205;-84
2022/04/18 07:53:51;;;;;;;4.23;2.80;;;12.50;96.10;;;;;;5054641;28;20244;-83
2022/04/18 07:56:19;;;;;;;3.30;2.63;;;12.50;96.30;;;;;;5054372;28;20202;-83
2022/04/18 07:58:46;;;;;;;6.33;2.83;;;12.70;95.20;;;;;;5054357;28;20323;-83
2022/04/18 08:01:13;;;;;;;3.80;2.57;;;12.80;94.70;;;;;;5054779;28;20223;-83
2022/04/18 08:03:41;;;;;;;3.23;2.73;;;13.10;94.20;;;;;;5053997;28;20219;-82
2022/04/18 08:06:08;;;;;;;3.57;2.77;;;13.10;93.60;;;;;;5052889;28;20231;-83
2022/04/18 08:08:35;;;;;;;4.20;2.60;;;13.00;92.90;;;;;;5054672;28;20676;-83
2022/04/18 08:11:02;;;;;;;5.77;2.90;;;13.10;92.50;;;;;;5054294;28;20207;-83
2022/04/18 08:13:29;;;;;;;8.97;3.27;;;13.10;92.70;;;;;;5054027;28;20195;-83
2022/04/18 08:15:56;;;;;;;3.37;2.67;;;13.30;92.10;;;;;;5054560;28;20200;-83
2022/04/18 08:18:23;;;;;;;5.23;2.70;;;13.50;91.60;;;;;;5054519;28;20215;-84
2022/04/18 08:20:52;;;;;;;3.50;2.73;;;13.50;91.70;;;;;;5054464;28;20223;-83
2022/04/18 08:23:19;;;;;;;4.13;2.73;;;13.60;92.00;;;;;;5054229;28;20199;-83
2022/04/18 08:25:45;;;;;;;3.27;2.40;;;13.70;92.00;;;;;;5054245;28;20231;-83
2022/04/18 08:28:13;;;;;;;5.33;2.60;;;13.90;92.20;;;;;;5054205;28;20205;-83
2022/04/18 08:30:40;;;;;;;4.47;2.43;;;14.00;91.70;;;;;;5054247;28;20429;-83
2022/04/18 08:33:07;;;;;;;2.90;2.50;;;13.90;92.20;;;;;;5052655;28;20205;-83
2022/04/18 08:35:33;;;;;;;3.40;3.10;;;14.00;91.80;;;;;;5054469;28;20201;-83
2022/04/18 08:38:02;;;;;;;9.93;2.80;;;14.00;91.70;;;;;;5055063;28;20209;-83
2022/04/18 08:40:28;;;;;;;4.57;2.83;;;14.00;91.70;;;;;;5054010;28;20206;-83
2022/04/18 08:42:56;;;;;;;4.50;3.00;;;14.10;92.00;;;;;;5054196;28;20670;-84
2022/04/18 08:45:24;;;;;;;3.57;2.50;;;14.10;91.50;;;;;;5052852;28;20777;-83
2022/04/18 08:53:27;;;;;;;3.83;2.80;;;14.60;92.00;;;;;;5051805;28;20206;-82
2022/04/18 08:55:54;;;;;;;5.83;2.87;;;14.80;92.00;;;;;;5053921;28;20214;-82
2022/04/18 08:58:22;;;;;;;4.77;2.40;;;15.00;91.20;;;;;;5051537;28;20195;-82
2022/04/18 09:00:49;;;;;;;3.90;2.60;;;15.10;91.40;;;;;;5053317;28;20220;-81
2022/04/18 09:03:15;;;;;;;4.13;2.77;;;15.20;91.00;;;;;;5052796;28;20684;-82
2022/04/18 09:05:42;;;;;;;4.80;2.83;;;15.30;91.00;;;;;;5052996;28;20580;-82
2022/04/18 09:08:10;;;;;;;3.27;2.40;;;15.30;90.60;;;;;;5053540;28;20206;-82
2022/04/18 09:10:40;;;;;;;3.47;2.57;;;15.40;90.80;;;;;;5053753;28;20260;-83
2022/04/18 09:13:08;;;;;;;3.43;2.90;;;15.60;90.70;;;;;;5053677;28;20662;-82
2022/04/18 09:15:38;;;;;;;4.83;3.10;;;15.60;90.80;;;;;;5052911;28;20195;-81
2022/04/18 09:18:10;;;;;;;3.10;2.90;;;15.70;90.80;;;;;;5052977;28;20206;-82
2022/04/18 09:20:42;;;;;;;3.40;3.10;;;16.00;91.10;;;;;;5053026;28;20197;-82
2022/04/18 09:23:22;;;;;;;3.40;2.60;;;16.20;90.20;;;;;;5051035;28;20257;-82
2022/04/18 09:25:54;;;;;;;3.47;2.50;;;16.30;90.10;;;;;;5050353;28;20275;-81
2022/04/18 09:28:25;;;;;;;2.43;2.23;;;16.50;90.20;;;;;;5053482;28;20201;-82
2022/04/18 09:30:59;;;;;;;3.57;2.90;;;16.60;89.80;;;;;;5053110;28;20202;-81
2022/04/18 09:33:30;;;;;;;3.37;2.47;;;16.70;90.30;;;;;;5053665;28;20198;-81
2022/04/18 09:36:06;;;;;;;8.33;3.33;;;16.90;89.20;;;;;;5052191;28;20264;-81
2022/04/18 09:38:37;;;;;;;3.77;2.43;;;16.90;88.40;;;;;;5053458;28;20645;-81
2022/04/18 09:41:05;;;;;;;2.90;2.40;;;17.00;88.00;;;;;;5053225;28;20259;-81
2022/04/18 09:43:39;;;;;;;4.07;2.67;;;17.10;88.70;;;;;;5053222;28;20257;-81
2022/04/18 09:46:08;;;;;;;4.80;2.20;;;17.00;88.40;;;;;;5052536;28;20690;-81
2022/04/18 09:48:35;;;;;;;2.97;2.40;;;17.10;88.60;;;;;;5053708;28;20234;-82
2022/04/18 09:51:08;;;;;;;3.83;2.70;;;17.10;87.30;;;;;;5053450;28;20221;-81
2022/04/18 09:53:36;;;;;;;3.80;2.33;;;17.10;87.40;;;;;;5052834;28;20205;-82
2022/04/18 09:56:02;;;;;;;2.60;2.40;;;17.30;88.10;;;;;;5052937;28;20207;-82
2022/04/18 09:58:33;;;;;;;3.57;3.23;;;17.30;88.40;;;;;;5053107;28;20206;-76
2022/04/18 10:01:03;;;;;;;2.90;2.60;;;17.50;87.30;;;;;;5052318;28;20508;-76
2022/04/18 10:03:30;;;;;;;3.00;2.70;;;17.70;86.30;;;;;;5052383;28;20293;-77
2022/04/18 10:05:58;;;;;;;2.60;2.33;;;17.80;84.60;;;;;;5052319;28;20384;-76
2022/04/18 10:08:26;;;;;;;2.97;2.67;;;17.60;83.40;;;;;;5052973;28;20202;-81
2022/04/18 10:10:53;;;;;;;3.30;2.37;;;17.50;82.90;;;;;;5052675;28;20205;-78
2022/04/18 10:13:21;;;;;;;3.50;2.27;;;17.30;83.20;;;;;;5052463;28;20202;-77
2022/04/18 10:15:51;;;;;;;2.23;2.03;;;17.50;83.70;;;;;;5052545;28;20229;-77
2022/04/18 10:18:19;;;;;;;2.90;1.60;;;17.50;83.50;;;;;;5052661;28;20206;-76
2022/04/18 10:20:55;;;;;;;2.10;2.00;;;17.70;79.50;;;;;;5051781;28;20261;-81
2022/04/18 10:23:41;;;;;;;3.03;2.03;;;18.00;80.40;;;;;;5053138;28;20202;-77
2022/04/18 10:26:47;;;;;;;2.38;2.17;;;18.10;78.30;;;;;;5052319;28;20932;-77
2022/04/18 10:29:20;;;;;;;4.03;2.00;;;18.20;77.50;;;;;;5040469;28;20292;-77
2022/04/18 10:31:49;;;;;;;1.80;1.70;;;18.40;75.20;;;;;;5052681;28;20239;-80
2022/04/18 10:34:16;;;;;;;3.83;1.80;;;18.10;73.10;;;;;;5052528;28;20680;-78
2022/04/18 10:36:46;;;;;;;1.83;1.70;;;18.10;74.60;;;;;;5052649;28;20211;-80
2022/04/18 10:39:13;;;;;;;2.07;1.70;;;18.10;71.10;;;;;;5052761;28;20211;-77
2022/04/18 10:41:41;;;;;;;3.27;1.83;;;18.10;72.00;;;;;;5052461;28;20336;-77
2022/04/18 10:44:09;;;;;;;2.43;2.20;;;18.20;74.50;;;;;;5052373;28;20211;-78
2022/04/18 10:46:37;;;;;;;2.53;2.33;;;18.20;74.60;;;;;;5052459;28;20233;-77
2022/04/18 10:49:06;;;;;;;3.90;2.23;;;18.30;74.80;;;;;;5052573;28;20206;-77
2022/04/18 10:51:36;;;;;;;2.17;1.90;;;18.20;74.00;;;;;;5052541;28;20207;-76
2022/04/18 10:54:09;;;;;;;2.47;2.17;;;18.40;74.30;;;;;;5052277;28;20624;-77
2022/04/18 10:56:48;;;;;;;1.80;1.70;;;18.40;72.40;;;;;;5055335;28;20202;-79
2022/04/18 10:59:15;;;;;;;2.33;2.13;;;18.50;72.30;;;;;;5049771;28;20238;-77
2022/04/18 11:01:42;;;;;;;2.20;2.10;;;18.50;71.70;;;;;;5040810;28;20700;-78
2022/04/18 11:04:12;;;;;;;2.40;2.20;;;18.40;71.00;;;;;;5036092;28;20211;-79
2022/04/18 11:06:52;;;;;;;2.10;2.00;;;18.30;71.00;;;;;;5036028;28;20300;-77
2022/04/18 11:09:23;;;;;;;2.50;2.30;;;18.50;72.70;;;;;;5036544;28;20271;-76
2022/04/18 11:11:54;;;;;;;2.60;2.40;;;18.70;73.90;;;;;;5036063;28;20212;-80
2022/04/18 11:14:22;;;;;;;2.30;2.20;;;18.90;72.60;;;;;;5036353;28;20304;-76
2022/04/18 11:16:58;;;;;;;2.90;2.60;;;18.90;70.00;;;;;;5034599;28;20407;-77
2022/04/18 11:19:29;;;;;;;2.70;2.50;;;18.90;70.90;;;;;;5036264;28;20218;-76
2022/04/18 11:22:10;;;;;;;2.80;2.60;;;18.90;71.50;;;;;;5036064;28;20210;-76
2022/04/18 11:24:39;;;;;;;4.77;2.10;;;19.00;70.60;;;;;;5036051;28;20206;-76
2022/04/18 11:27:09;;;;;;;2.40;2.20;;;18.70;70.80;;;;;;5035317;28;20596;-76
2022/04/18 11:29:36;;;;;;;2.20;2.10;;;18.70;72.50;;;;;;5035610;28;20210;-77
2022/04/18 11:32:04;;;;;;;3.70;2.80;;;18.80;72.00;;;;;;5035620;28;20216;-76
2022/04/18 11:34:33;;;;;;;2.50;2.40;;;18.60;70.70;;;;;;5035415;28;20208;-77
2022/04/18 11:37:03;;;;;;;2.37;2.17;;;18.80;71.80;;;;;;5035671;28;20206;-77
2022/04/18 11:39:46;;;;;;;2.50;2.23;;;19.00;73.00;;;;;;5036048;28;20207;-77
2022/04/18 11:42:17;;;;;;;2.90;2.60;;;19.10;70.10;;;;;;5035264;28;20218;-78
2022/04/18 11:44:45;;;;;;;2.97;2.40;;;19.20;69.20;;;;;;5035867;28;20271;-77
2022/04/18 11:47:13;;;;;;;3.93;2.60;;;19.10;68.90;;;;;;5035444;28;20237;-78
2022/04/18 11:49:44;;;;;;;2.40;2.20;;;19.10;68.10;;;;;;5035843;28;20210;-79
2022/04/18 11:52:18;;;;;;;2.10;1.90;;;19.20;63.90;;;;;;5035323;28;20302;-77
2022/04/18 11:55:00;;;;;;;2.37;2.27;;;19.40;63.40;;;;;;5035452;28;20211;-79
2022/04/18 11:57:29;;;;;;;2.53;2.17;;;19.60;63.90;;;;;;5035410;28;20208;-78
2022/04/18 11:59:56;;;;;;;3.53;2.03;;;19.50;62.20;;;;;;5035503;28;20688;-77
2022/04/18 12:08:03;;;;;;;4.90;1.77;;;19.90;61.70;;;;;;5034056;28;20223;-81
2022/04/18 12:10:32;;;;;;;2.00;1.60;;;19.80;59.70;;;;;;5034598;28;20206;-82
2022/04/18 12:13:01;;;;;;;2.30;2.10;;;19.90;60.40;;;;;;5034777;28;20209;-80
2022/04/18 12:15:29;;;;;;;2.87;1.93;;;19.90;58.60;;;;;;5034292;28;20206;-78
2022/04/18 12:17:58;;;;;;;2.57;1.73;;;19.80;59.90;;;;;;5034691;28;20205;-80
2022/04/18 12:20:30;;;;;;;2.00;1.90;;;19.70;61.60;;;;;;5034233;28;20250;-82
2022/04/18 12:22:59;;;;;;;2.20;2.00;;;20.00;61.70;;;;;;5034971;28;20206;-80
2022/04/18 12:25:27;;;;;;;1.93;1.83;;;19.90;60.80;;;;;;5034726;28;20209;-82
2022/04/18 12:27:55;;;;;;;2.10;1.90;;;20.20;62.50;;;;;;5034757;28;20202;-82
2022/04/18 12:30:23;;;;;;;2.58;2.35;;;20.30;62.00;;;;;;5034000;28;20423;-82
2022/04/18 12:32:50;;;;;;;2.57;2.37;;;20.30;61.60;;;;;;5034674;28;20219;-81
2022/04/18 12:35:32;;;;;;;3.63;2.40;;;20.00;60.00;;;;;;5034713;28;20217;-80
2022/04/18 12:38:04;;;;;;;2.70;2.30;;;20.20;62.10;;;;;;5034292;28;20245;-80
2022/04/18 12:40:35;;;;;;;2.97;1.70;;;20.10;59.90;;;;;;5034701;28;20217;-80
2022/04/18 12:43:06;;;;;;;1.60;1.50;;;20.30;60.20;;;;;;5034654;28;20214;-80
2022/04/18 12:45:48;;;;;;;2.47;1.93;;;20.50;56.90;;;;;;5034615;28;20207;-80
2022/04/18 12:48:19;;;;;;;1.50;1.40;;;20.20;56.10;;;;;;5034244;28;20260;-80
2022/04/18 12:50:46;;;;;;;1.90;1.60;;;20.50;57.50;;;;;;5034312;28;20202;-82
2022/04/18 12:53:14;;;;;;;2.20;2.00;;;20.60;57.40;;;;;;5034149;28;20215;-80
2022/04/18 12:55:41;;;;;;;2.33;1.67;;;20.80;57.70;;;;;;5034102;28;20238;-80
2022/04/18 12:58:19;;;;;;;2.17;1.97;;;20.70;57.20;;;;;;5034387;28;20203;-83
2022/04/18 13:00:48;;;;;;;2.13;2.00;;;20.80;57.00;;;;;;5033245;28;20277;-82
2022/04/18 13:03:16;;;;;;;2.03;1.93;;;21.00;57.30;;;;;;5033645;28;20212;-81
2022/04/18 13:05:44;;;;;;;2.93;2.10;;;21.00;57.30;;;;;;5034070;28;20268;-80
2022/04/18 13:08:12;;;;;;;2.57;2.27;;;21.20;57.10;;;;;;5046845;28;20662;-80
2022/04/18 13:10:41;;;;;;;3.43;2.03;;;21.20;55.40;;;;;;5050042;28;20195;-79
2022/04/18 13:13:12;;;;;;;3.97;2.03;;;20.90;56.40;;;;;;5053343;28;20200;-80
2022/04/18 13:15:40;;;;;;;2.27;2.00;;;20.70;55.80;;;;;;5050747;28;20195;-80
2022/04/18 13:18:09;;;;;;;5.37;2.10;;;20.50;56.50;;;;;;5053404;28;20293;-79
2022/04/18 13:20:38;;;;;;;1.73;1.63;;;20.30;55.70;;;;;;5052273;28;20288;-80
2022/04/18 13:23:06;;;;;;;3.97;1.90;;;20.40;56.80;;;;;;5052839;28;20200;-80
2022/04/18 13:25:33;;;;;;;2.07;1.80;;;20.50;56.20;;;;;;5052588;28;20572;-81